Time;durP1;ratioP1;P1;durP2;ratioP2;P2;SDS_P1;SDS_P2;PMS_P1;PMS_P2;Temp;Humidity;BMP_temperature;BMP_pressure;BME280_temperature;BME280_humidity;BME280_pressure;Samples;Min_cycle;Max_cycle;Signal;HPM_P1;HPM_P2
2022/07/03 00:02:02;;;;;;;2.30;1.55;;;;;;;20.54;49.81;101654.19;4994042;28;108410;-67
2022/07/03 00:04:29;;;;;;;3.97;1.98;;;;;;;20.50;49.57;101653.56;4988856;28;124667;-67
2022/07/03 00:06:56;;;;;;;2.83;2.00;;;;;;;20.49;49.78;101645.59;4989950;28;124028;-67
2022/07/03 00:09:24;;;;;;;2.50;1.80;;;;;;;20.48;49.73;101639.38;4987796;28;109142;-66
2022/07/03 00:11:51;;;;;;;2.33;1.80;;;;;;;20.49;49.89;101640.22;4992326;28;108858;-67
2022/07/03 00:14:18;;;;;;;6.10;2.05;;;;;;;20.49;49.76;101641.06;4991888;28;124388;-67
2022/07/03 00:16:45;;;;;;;6.30;2.33;;;;;;;20.49;49.87;101640.22;4991211;28;124988;-67
2022/07/03 00:19:13;;;;;;;2.60;1.60;;;;;;;20.46;49.84;101635.94;4990480;28;109829;-67
2022/07/03 00:21:53;;;;;;;3.30;1.88;;;;;;;20.45;49.67;101644.13;4990207;28;109903;-67
2022/07/03 00:24:25;;;;;;;6.28;2.50;;;;;;;20.39;49.80;101635.50;4992461;28;124152;-68
2022/07/03 00:26:54;;;;;;;2.95;1.92;;;;;;;20.36;49.71;101630.38;4988779;28;124085;-66
2022/07/03 00:29:26;;;;;;;2.92;2.00;;;;;;;20.34;49.74;101636.84;4992018;28;109131;-66
2022/07/03 00:31:54;;;;;;;4.05;2.15;;;;;;;20.30;49.56;101633.50;4990322;28;108801;-67
2022/07/03 00:34:25;;;;;;;3.10;2.10;;;;;;;20.27;49.92;101641.81;4990134;28;124647;-67
2022/07/03 00:36:52;;;;;;;4.50;2.30;;;;;;;20.25;49.95;101643.75;4991042;28;123872;-66
2022/07/03 00:39:20;;;;;;;4.75;2.00;;;;;;;20.22;49.87;101638.59;4993344;28;109392;-67
2022/07/03 00:42:00;;;;;;;4.15;2.10;;;;;;;20.19;49.95;101638.81;4994446;28;108389;-65
2022/07/03 00:44:32;;;;;;;5.70;2.20;;;;;;;20.17;49.78;101630.00;4991135;28;124500;-65
2022/07/03 00:47:02;;;;;;;3.22;1.88;;;;;;;20.15;50.08;101631.94;4992690;28;124259;-66
2022/07/03 00:49:31;;;;;;;3.42;1.98;;;;;;;20.10;50.14;101636.78;4990814;28;108035;-65
2022/07/03 00:52:04;;;;;;;2.72;2.10;;;;;;;20.06;50.45;101632.59;4992923;28;109107;-65
2022/07/03 00:54:35;;;;;;;3.17;2.30;;;;;;;20.01;50.60;101631.13;4990539;28;124189;-65
2022/07/03 00:57:03;;;;;;;2.67;2.25;;;;;;;19.97;50.58;101632.31;4990697;28;124509;-67
2022/07/03 00:59:30;;;;;;;6.63;2.35;;;;;;;19.93;50.65;101628.13;4989602;28;109278;-65
2022/07/03 01:02:06;;;;;;;5.20;2.65;;;;;;;19.89;50.80;101632.03;4990318;28;109925;-65
2022/07/03 01:04:51;;;;;;;3.45;2.60;;;;;;;19.86;50.85;101629.53;4993637;28;124364;-65
2022/07/03 01:07:35;;;;;;;3.20;2.50;;;;;;;19.81;50.95;101623.63;4989460;28;122281;-65
2022/07/03 01:10:30;;;;;;;3.88;2.35;;;;;;;19.78;50.83;101637.31;4988911;28;109173;-65
2022/07/03 01:13:13;;;;;;;4.07;2.40;;;;;;;19.75;50.72;101629.44;4983762;28;108388;-65
2022/07/03 01:16:06;;;;;;;4.38;2.78;;;;;;;19.70;50.45;101631.56;4987113;28;124140;-65
2022/07/03 01:18:54;;;;;;;3.47;2.67;;;;;;;19.64;50.39;101633.72;4988729;28;124299;-65
2022/07/03 01:21:54;;;;;;;5.20;2.40;;;;;;;19.61;50.58;101636.63;4988642;28;110455;-65
2022/07/03 01:24:55;;;;;;;3.97;3.00;;;;;;;19.55;50.64;101631.69;4990046;28;109894;-64
2022/07/03 01:27:47;;;;;;;4.10;3.10;;;;;;;19.50;50.78;101625.78;4992215;28;124417;-65
2022/07/03 01:30:15;;;;;;;4.85;4.10;;;;;;;19.48;50.81;101630.41;4991024;28;124040;-67
2022/07/03 01:32:44;;;;;;;8.43;5.55;;;;;;;19.45;51.04;101633.31;4988382;28;109028;-64
2022/07/03 01:35:15;;;;;;;10.48;6.50;;;;;;;19.41;51.26;101631.81;4986711;28;109022;-67
2022/07/03 01:37:44;;;;;;;8.15;5.43;;;;;;;19.36;51.23;101628.56;4987629;28;124116;-67
2022/07/03 01:40:14;;;;;;;5.60;4.28;;;;;;;19.29;51.59;101633.53;4991091;28;123372;-67
2022/07/03 01:42:42;;;;;;;5.20;3.88;;;;;;;19.23;51.74;101640.19;4990774;28;109422;-65
2022/07/03 01:45:10;;;;;;;5.25;3.78;;;;;;;19.21;51.64;101642.13;5005656;28;108522;-67
2022/07/03 01:47:41;;;;;;;5.65;3.85;;;;;;;19.20;51.63;101647.59;4987234;28;124088;-67
2022/07/03 01:50:12;;;;;;;7.07;4.00;;;;;;;19.18;51.40;101653.06;4990382;28;123762;-66
2022/07/03 01:52:41;;;;;;;5.97;3.97;;;;;;;19.18;51.77;101647.69;4990859;28;108081;-64
2022/07/03 01:55:13;;;;;;;5.93;3.83;;;;;;;19.17;51.72;101654.00;4989085;28;108525;-66
2022/07/03 01:57:49;;;;;;;4.43;3.97;;;;;;;19.15;51.92;101653.25;4990556;28;125240;-63
2022/07/03 02:00:22;;;;;;;5.82;4.07;;;;;;;19.15;51.90;101653.25;4990750;28;123981;-66
2022/07/03 02:03:02;;;;;;;5.43;4.40;;;;;;;19.14;51.90;101651.56;4989499;28;108038;-63
2022/07/03 02:05:37;;;;;;;6.18;4.72;;;;;;;19.15;52.16;101655.94;4989454;28;108708;-65
2022/07/03 02:08:26;;;;;;;6.97;4.57;;;;;;;19.14;52.09;101651.56;4988169;28;122933;-64
2022/07/03 02:11:13;;;;;;;6.63;4.55;;;;;;;19.13;51.92;101655.19;4989699;28;123667;-65
2022/07/03 02:14:13;;;;;;;7.35;4.78;;;;;;;19.12;52.02;101642.75;4978541;28;110408;-65
2022/07/03 02:17:02;;;;;;;7.25;5.07;;;;;;;19.12;51.92;101647.22;4988885;28;110107;-65
2022/07/03 02:19:50;;;;;;;6.43;4.30;;;;;;;19.12;52.09;101642.75;4988752;28;124994;-65
2022/07/03 02:22:30;;;;;;;5.82;4.60;;;;;;;19.13;52.15;101643.59;4983607;28;124428;-65
2022/07/03 02:25:06;;;;;;;7.70;5.55;;;;;;;19.14;52.17;101639.97;4987195;28;110219;-65
2022/07/03 02:27:50;;;;;;;7.47;5.07;;;;;;;19.14;52.17;101640.81;4991576;28;108005;-65
2022/07/03 02:30:18;;;;;;;7.13;4.28;;;;;;;19.15;52.25;101642.50;4987560;28;124363;-66
2022/07/03 02:32:51;;;;;;;5.47;4.78;;;;;;;19.15;52.22;101645.19;4990018;28;124429;-66
2022/07/03 02:35:25;;;;;;;6.82;5.40;;;;;;;19.15;52.36;101641.66;4989329;28;109043;-65
2022/07/03 02:38:03;;;;;;;8.20;5.45;;;;;;;19.15;52.28;101647.03;4986117;28;108911;-65
2022/07/03 02:40:50;;;;;;;6.50;5.28;;;;;;;19.12;52.23;101642.75;4987887;28;123233;-65
2022/07/03 02:43:41;;;;;;;6.75;5.30;;;;;;;19.10;52.24;101636.63;4986193;28;123917;-64
2022/07/03 02:46:50;;;;;;;6.30;5.10;;;;;;;19.09;52.12;101637.56;4987365;28;109536;-64
2022/07/03 02:49:22;;;;;;;6.10;5.05;;;;;;;19.08;52.27;101641.22;4986502;28;108814;-64
2022/07/03 02:52:17;;;;;;;6.53;5.47;;;;;;;19.08;52.31;101645.72;4989101;28;125537;-64
2022/07/03 02:54:46;;;;;;;6.47;5.23;;;;;;;19.07;52.19;101636.81;4991011;28;123650;-65
2022/07/03 02:57:18;;;;;;;8.82;5.05;;;;;;;19.06;52.34;101637.75;4990720;28;108962;-64
2022/07/03 02:59:54;;;;;;;6.78;5.28;;;;;;;19.06;52.49;101643.13;4986492;28;108360;-64
2022/07/03 03:02:21;;;;;;;6.65;5.35;;;;;;;19.03;52.42;101638.00;4990505;28;123947;-64
2022/07/03 03:04:56;;;;;;;6.95;5.10;;;;;;;19.02;52.54;101647.88;4987877;28;123762;-64
2022/07/03 03:07:35;;;;;;;6.53;5.50;;;;;;;19.01;52.51;101650.66;4990513;28;110314;-65
2022/07/03 03:10:02;;;;;;;6.63;5.53;;;;;;;18.99;52.52;101647.22;4990272;28;109708;-64
2022/07/03 03:12:35;;;;;;;6.72;5.70;;;;;;;18.98;52.60;101646.34;4989267;28;124171;-65
2022/07/03 03:15:04;;;;;;;5.40;4.90;;;;;;;18.97;52.64;101650.00;4983231;28;124276;-65
2022/07/03 03:17:42;;;;;;;7.05;5.60;;;;;;;18.95;52.69;101651.06;4983985;28;109377;-64
2022/07/03 03:20:16;;;;;;;7.18;5.30;;;;;;;18.92;52.52;101643.22;4989427;28;108247;-64
2022/07/03 03:22:59;;;;;;;7.65;5.95;;;;;;;18.90;52.75;101651.38;4988228;28;124120;-64
2022/07/03 03:25:26;;;;;;;6.88;5.40;;;;;;;18.89;52.75;101654.16;4989608;28;122721;-64
2022/07/03 03:27:58;;;;;;;7.18;5.75;;;;;;;18.85;53.13;101657.06;4991395;28;109562;-64
2022/07/03 03:30:25;;;;;;;6.30;5.70;;;;;;;18.84;52.99;101660.72;4987450;28;109046;-64
2022/07/03 03:32:53;;;;;;;9.52;6.10;;;;;;;18.82;52.94;101654.59;4987144;28;124061;-64
2022/07/03 03:35:20;;;;;;;7.88;6.20;;;;;;;18.81;53.04;101654.69;4988416;28;125298;-64
2022/07/03 03:37:51;;;;;;;7.65;6.32;;;;;;;18.81;53.18;101655.53;4989622;28;108258;-64
2022/07/03 03:40:18;;;;;;;7.50;6.45;;;;;;;18.79;53.07;101657.44;4991521;28;109251;-64
2022/07/03 03:42:45;;;;;;;7.00;6.03;;;;;;;18.78;53.16;101655.72;4986272;28;124242;-64
2022/07/03 03:45:13;;;;;;;7.93;6.40;;;;;;;18.77;53.35;101664.72;4985451;28;123347;-65
2022/07/03 03:47:40;;;;;;;7.28;6.40;;;;;;;18.76;53.12;101668.38;4988170;28;109525;-64
2022/07/03 03:50:07;;;;;;;8.48;6.43;;;;;;;18.75;53.32;101658.59;4991393;28;109487;-64
2022/07/03 03:52:34;;;;;;;7.90;6.47;;;;;;;18.75;53.42;101663.97;4988642;28;124049;-64
2022/07/03 03:55:02;;;;;;;8.80;5.80;;;;;;;18.75;53.57;101661.28;4992632;28;124210;-64
2022/07/03 03:57:29;;;;;;;8.65;6.07;;;;;;;18.74;53.53;101659.59;4991156;28;110208;-64
2022/07/03 03:59:57;;;;;;;7.95;6.30;;;;;;;18.75;53.69;101666.66;4994000;28;109706;-64
2022/07/03 04:02:24;;;;;;;7.95;6.28;;;;;;;18.76;53.82;101660.34;4991226;28;124333;-64
2022/07/03 04:04:51;;;;;;;7.47;6.20;;;;;;;18.78;53.71;101661.09;4993498;28;123778;-64
2022/07/03 04:07:18;;;;;;;8.02;6.22;;;;;;;18.81;54.10;101660.06;4992211;28;109489;-64
2022/07/03 04:09:46;;;;;;;7.63;6.18;;;;;;;18.84;54.12;101660.72;4993024;28;109287;-64
2022/07/03 04:12:13;;;;;;;7.53;5.57;;;;;;;18.90;54.06;101663.94;4991801;28;124117;-64
2022/07/03 04:14:40;;;;;;;9.82;6.35;;;;;;;18.94;54.00;101665.47;4988273;28;125729;-64
2022/07/03 04:17:07;;;;;;;10.68;6.22;;;;;;;18.96;54.23;101666.22;4992215;28;109910;-64
2022/07/03 04:19:35;;;;;;;7.15;6.45;;;;;;;19.00;53.91;101659.66;4990606;28;109026;-66
2022/07/03 04:22:02;;;;;;;8.55;7.05;;;;;;;19.03;54.09;101659.47;4989849;28;124602;-64
2022/07/03 04:24:29;;;;;;;9.00;7.63;;;;;;;19.05;54.00;101662.91;4991517;28;124587;-64
2022/07/03 04:26:56;;;;;;;10.30;7.72;;;;;;;19.08;54.01;101657.34;4974056;28;108553;-64
2022/07/03 04:29:23;;;;;;;8.02;7.20;;;;;;;19.11;54.09;101667.84;4990189;28;109126;-64
2022/07/03 04:31:50;;;;;;;8.88;7.53;;;;;;;19.13;54.20;101665.94;4991640;28;124295;-64
2022/07/03 04:34:18;;;;;;;8.90;7.20;;;;;;;19.15;53.90;101669.38;4992182;28;124416;-64
2022/07/03 04:36:45;;;;;;;8.25;6.75;;;;;;;19.15;53.89;101664.00;4991294;28;109274;-64
2022/07/03 04:39:12;;;;;;;10.48;7.03;;;;;;;19.18;53.92;101668.31;4987808;28;108141;-64
2022/07/03 04:41:39;;;;;;;8.57;7.00;;;;;;;19.19;54.02;101665.53;4991184;28;124054;-64
2022/07/03 04:44:06;;;;;;;10.02;7.55;;;;;;;19.20;54.03;101669.91;4988407;28;123876;-64
2022/07/03 04:46:33;;;;;;;11.27;7.70;;;;;;;19.21;53.89;101673.47;4990768;28;109773;-64
2022/07/03 04:49:00;;;;;;;9.52;7.75;;;;;;;19.22;54.27;101670.66;4990984;28;110078;-66
2022/07/03 04:51:28;;;;;;;9.57;7.10;;;;;;;19.25;54.29;101675.00;4989999;28;123978;-64
2022/07/03 04:53:55;;;;;;;10.43;7.57;;;;;;;19.30;54.39;101677.34;4989829;28;124404;-64
2022/07/03 04:56:22;;;;;;;8.23;7.28;;;;;;;19.34;54.50;101676.16;4991435;28;109429;-64
2022/07/03 04:58:49;;;;;;;10.90;7.05;;;;;;;19.41;54.63;101680.16;4991191;28;109602;-64
2022/07/03 05:01:16;;;;;;;9.23;7.00;;;;;;;19.51;54.74;101675.00;4993207;28;125046;-64
2022/07/03 05:03:44;;;;;;;8.45;7.38;;;;;;;19.60;54.63;101680.59;4993485;28;124432;-65
2022/07/03 05:06:11;;;;;;;11.18;8.23;;;;;;;19.68;54.43;101682.72;4993821;28;109511;-65
2022/07/03 05:08:43;;;;;;;11.95;7.78;;;;;;;19.75;54.19;101684.06;4989785;28;109018;-64
2022/07/03 05:11:10;;;;;;;10.02;7.60;;;;;;;19.83;54.05;101691.59;4990488;28;125337;-64
2022/07/03 05:13:37;;;;;;;9.55;7.90;;;;;;;19.88;54.05;101684.06;4992540;28;122741;-64
2022/07/03 05:16:04;;;;;;;8.75;7.85;;;;;;;19.93;53.81;101681.91;4989912;28;109431;-64
2022/07/03 05:18:33;;;;;;;9.82;7.90;;;;;;;19.97;53.82;101686.09;4987851;28;109157;-64
2022/07/03 05:21:00;;;;;;;8.40;7.32;;;;;;;20.03;53.58;101691.03;4990287;28;124333;-64
2022/07/03 05:23:28;;;;;;;11.02;8.02;;;;;;;20.10;53.71;101682.50;4991335;28;123857;-64
2022/07/03 05:25:55;;;;;;;11.13;7.97;;;;;;;20.15;53.73;101686.59;4992110;28;109278;-65
2022/07/03 05:28:22;;;;;;;10.05;7.28;;;;;;;20.20;53.69;101689.81;4990535;28;109296;-66
2022/07/03 05:30:49;;;;;;;9.25;7.75;;;;;;;20.28;53.56;101691.94;4992435;28;124740;-66
2022/07/03 05:33:16;;;;;;;10.88;7.50;;;;;;;20.34;53.41;101691.53;4990555;28;123801;-67
2022/07/03 05:35:43;;;;;;;9.30;7.00;;;;;;;20.41;53.44;101687.38;4989875;28;110495;-65
2022/07/03 05:38:11;;;;;;;9.15;6.13;;;;;;;20.50;53.41;101685.00;4989254;28;111184;-66
2022/07/03 05:40:38;;;;;;;7.53;5.72;;;;;;;20.58;53.29;101693.38;4975427;28;123185;-66
2022/07/03 05:43:05;;;;;;;7.25;5.80;;;;;;;20.64;53.25;101692.09;4989507;28;123767;-66
2022/07/03 05:45:32;;;;;;;7.55;5.85;;;;;;;20.67;53.11;101687.34;4988554;28;109055;-66
2022/07/03 05:47:59;;;;;;;9.05;5.68;;;;;;;20.72;53.22;101690.56;4990622;28;108996;-65
2022/07/03 05:50:29;;;;;;;6.32;5.30;;;;;;;20.81;53.44;101694.38;4989330;28;123647;-65
2022/07/03 05:52:56;;;;;;;6.15;5.05;;;;;;;20.89;53.29;101701.88;4990365;28;122611;-65
2022/07/03 05:55:23;;;;;;;6.47;4.75;;;;;;;21.00;53.21;101699.22;4989989;28;109142;-66
2022/07/03 05:57:50;;;;;;;6.38;4.43;;;;;;;21.09;53.06;101693.16;4988767;28;109007;-66
2022/07/03 06:00:17;;;;;;;6.50;4.70;;;;;;;21.17;53.17;101689.88;4989627;28;124688;-66
2022/07/03 06:02:45;;;;;;;7.40;4.25;;;;;;;21.27;52.83;101696.28;4983201;28;124286;-66
2022/07/03 06:05:12;;;;;;;5.50;3.42;;;;;;;21.35;52.66;101693.84;4978956;28;109191;-66
2022/07/03 06:07:39;;;;;;;6.47;3.67;;;;;;;21.45;52.56;101693.16;4983313;28;108749;-65
2022/07/03 06:10:07;;;;;;;6.30;3.45;;;;;;;21.52;52.18;101695.28;4992072;28;124599;-66
2022/07/03 06:12:34;;;;;;;4.75;2.95;;;;;;;21.62;52.23;101699.94;4990788;28;123892;-66
2022/07/03 06:15:02;;;;;;;7.20;3.20;;;;;;;21.71;51.95;101699.22;4992001;28;109432;-66
2022/07/03 06:17:29;;;;;;;4.80;2.72;;;;;;;21.78;51.70;101706.72;4998860;28;109627;-66
2022/07/03 06:19:56;;;;;;;4.28;2.92;;;;;;;21.83;51.57;101711.75;4987446;28;124649;-67
2022/07/03 06:22:23;;;;;;;5.47;3.03;;;;;;;21.91;51.18;101712.00;4988167;28;123860;-67
2022/07/03 06:24:51;;;;;;;5.38;3.20;;;;;;;22.01;51.18;101708.56;4983478;28;111490;-67
2022/07/03 06:27:18;;;;;;;5.82;2.78;;;;;;;22.09;51.03;101714.19;4984593;28;109670;-67
2022/07/03 06:29:45;;;;;;;5.93;2.80;;;;;;;22.17;50.88;101714.47;4989282;28;123669;-67
2022/07/03 06:32:12;;;;;;;4.35;2.55;;;;;;;22.26;50.95;101712.88;4989335;28;124015;-66
2022/07/03 06:34:40;;;;;;;6.05;2.67;;;;;;;22.34;50.81;101713.97;4990723;28;109303;-66
2022/07/03 06:37:07;;;;;;;4.70;2.53;;;;;;;22.46;50.78;101716.66;4975357;28;109155;-66
2022/07/03 06:39:34;;;;;;;5.45;2.88;;;;;;;22.56;50.66;101712.22;4990583;28;123743;-66
2022/07/03 06:42:02;;;;;;;4.88;2.67;;;;;;;22.69;50.76;101707.50;4975855;28;124087;-66
2022/07/03 06:44:29;;;;;;;4.80;2.50;;;;;;;22.82;50.59;101706.50;4977202;28;109128;-66
2022/07/03 06:46:56;;;;;;;5.18;2.80;;;;;;;22.97;50.49;101718.72;4991728;28;108994;-66
2022/07/03 06:49:24;;;;;;;6.70;2.95;;;;;;;23.12;50.32;101714.75;4975697;28;124129;-67
2022/07/03 06:51:51;;;;;;;4.15;2.50;;;;;;;23.26;50.08;101715.44;4979233;28;123526;-66
2022/07/03 06:54:18;;;;;;;5.28;2.75;;;;;;;23.39;49.74;101721.50;4972952;28;109492;-66
2022/07/03 06:56:45;;;;;;;4.55;2.17;;;;;;;23.50;49.44;101713.31;4973453;28;108960;-66
2022/07/03 06:59:12;;;;;;;5.18;2.05;;;;;;;23.61;49.38;101722.38;4985829;28;123990;-67
2022/07/03 07:01:39;;;;;;;6.38;2.75;;;;;;;23.70;49.20;101721.56;4990002;28;124732;-66
2022/07/03 07:04:07;;;;;;;5.93;2.47;;;;;;;23.78;48.99;101716.34;4992103;28;109730;-66
2022/07/03 07:06:35;;;;;;;5.05;2.78;;;;;;;23.84;49.00;101710.41;4979565;28;109001;-66
2022/07/03 07:09:03;;;;;;;6.07;2.33;;;;;;;23.95;48.92;101711.34;4990547;28;122928;-66
2022/07/03 07:11:30;;;;;;;4.65;2.50;;;;;;;24.07;48.95;101712.94;4989653;28;124512;-66
2022/07/03 07:13:57;;;;;;;4.60;2.03;;;;;;;24.19;48.51;101711.88;4979473;28;110732;-66
2022/07/03 07:16:24;;;;;;;7.35;2.35;;;;;;;24.29;48.76;101715.44;4988140;28;109888;-65
2022/07/03 07:18:52;;;;;;;4.90;2.50;;;;;;;24.41;48.63;101723.47;4982091;28;124510;-65
2022/07/03 07:21:19;;;;;;;4.03;2.35;;;;;;;24.54;48.46;101713.28;4985447;28;122700;-65
2022/07/03 07:23:46;;;;;;;6.20;2.65;;;;;;;24.68;48.38;101722.88;4990381;28;109193;-65
2022/07/03 07:26:13;;;;;;;4.32;2.22;;;;;;;24.81;47.84;101719.91;4990022;28;108785;-65
2022/07/03 07:28:40;;;;;;;6.57;2.72;;;;;;;24.92;47.63;101711.63;4989497;28;124673;-65
2022/07/03 07:31:07;;;;;;;5.22;2.50;;;;;;;25.04;47.64;101715.91;4995124;28;125045;-65
2022/07/03 07:33:35;;;;;;;4.55;2.30;;;;;;;25.16;48.03;101713.03;4994280;28;109403;-65
2022/07/03 07:36:02;;;;;;;3.67;2.20;;;;;;;25.28;47.52;101730.91;4995312;28;109057;-65
2022/07/03 07:38:30;;;;;;;5.65;2.10;;;;;;;25.37;47.00;101716.50;4988859;28;124041;-66
2022/07/03 07:40:57;;;;;;;6.60;2.35;;;;;;;25.45;46.81;101724.75;4993488;28;124638;-65
2022/07/03 07:43:24;;;;;;;4.60;1.92;;;;;;;25.54;46.34;101723.03;4992658;28;109017;-66
2022/07/03 07:45:52;;;;;;;3.40;2.15;;;;;;;25.63;46.36;101727.56;5007755;28;108008;-67
2022/07/03 07:48:19;;;;;;;3.35;1.63;;;;;;;25.74;45.98;101734.69;4986883;28;124785;-67
2022/07/03 07:50:48;;;;;;;2.97;1.60;;;;;;;25.86;45.90;101737.22;4980811;28;124006;-68
2022/07/03 07:53:15;;;;;;;4.57;1.67;;;;;;;25.94;45.57;101734.69;4993561;28;109770;-65
2022/07/03 07:55:42;;;;;;;2.67;1.40;;;;;;;26.03;45.18;101739.19;4993587;28;108676;-65
2022/07/03 07:58:09;;;;;;;3.45;1.38;;;;;;;26.10;44.50;101734.88;4993620;28;123985;-65
2022/07/03 08:05:35;;;;;;;3.13;1.25;;;;;;;26.09;44.17;101738.63;4992390;28;123639;-65
2022/07/03 08:06:10;;;;;;;5.88;1.40;;;;;;;26.10;44.46;101740.31;4992578;28;111351;-67
2022/07/03 08:08:37;;;;;;;4.70;1.60;;;;;;;26.14;44.28;101733.56;4992962;28;124143;-67
2022/07/03 08:11:04;;;;;;;4.07;1.58;;;;;;;26.20;44.21;101735.72;4980012;28;123691;-67
2022/07/03 08:13:31;;;;;;;2.58;1.60;;;;;;;26.28;43.62;101736.81;4993856;28;108913;-66
2022/07/03 08:15:59;;;;;;;3.95;1.83;;;;;;;26.32;43.10;101738.22;4978294;28;108887;-65
2022/07/03 08:18:26;;;;;;;3.17;1.50;;;;;;;26.34;43.45;101736.22;4986771;28;124571;-65
2022/07/03 08:20:53;;;;;;;3.22;1.58;;;;;;;26.37;43.20;101741.31;4984248;28;124660;-65
2022/07/03 08:23:20;;;;;;;3.35;1.90;;;;;;;26.40;42.96;101732.88;4991858;28;109159;-65
2022/07/03 08:25:47;;;;;;;4.40;1.67;;;;;;;26.44;42.86;101742.44;4994568;28;108322;-65
2022/07/03 08:28:14;;;;;;;2.35;1.50;;;;;;;26.51;42.82;101732.69;4990472;28;124508;-65
2022/07/03 08:30:41;;;;;;;3.15;1.60;;;;;;;26.60;42.56;101742.69;4974246;28;124906;-65
2022/07/03 08:33:10;;;;;;;4.15;2.13;;;;;;;26.67;42.50;101742.06;4972650;28;109168;-65
2022/07/03 08:35:37;;;;;;;4.95;1.73;;;;;;;26.72;42.37;101739.75;4972679;28;109287;-65
2022/07/03 08:38:04;;;;;;;3.83;2.20;;;;;;;26.73;42.15;101736.00;4982742;28;124115;-65
2022/07/03 08:40:31;;;;;;;3.88;1.70;;;;;;;26.75;42.14;101734.00;4980118;28;124374;-66
2022/07/03 08:43:03;;;;;;;3.45;1.60;;;;;;;26.77;41.89;101737.44;4992600;28;109314;-65
2022/07/03 08:45:33;;;;;;;2.80;1.40;;;;;;;26.77;41.71;101732.00;4991815;28;108889;-65
2022/07/03 08:48:02;;;;;;;3.95;1.40;;;;;;;26.78;41.16;101733.69;4992660;28;124042;-65
2022/07/03 08:50:32;;;;;;;2.22;1.48;;;;;;;26.81;41.75;101738.81;4992291;28;123844;-66
2022/07/03 08:53:00;;;;;;;2.55;1.55;;;;;;;26.86;41.09;101736.50;4981314;28;110111;-65
2022/07/03 08:55:27;;;;;;;1.70;1.02;;;;;;;26.86;41.21;101730.19;4991917;28;109756;-65
2022/07/03 08:58:01;;;;;;;2.67;1.30;;;;;;;26.85;41.14;101734.78;4976957;28;123883;-65
2022/07/03 09:00:29;;;;;;;2.75;1.30;;;;;;;26.88;41.17;101728.16;4994272;28;124183;-66
2022/07/03 09:02:57;;;;;;;4.18;1.50;;;;;;;26.93;40.92;101729.41;4990452;28;109152;-65
2022/07/03 09:05:24;;;;;;;2.70;1.33;;;;;;;27.00;41.17;101730.50;4990721;28;108691;-65
2022/07/03 09:07:52;;;;;;;2.83;1.40;;;;;;;27.08;40.79;101735.16;4990289;28;123033;-65
2022/07/03 09:10:19;;;;;;;2.47;1.30;;;;;;;27.13;40.29;101727.41;4992474;28;123898;-67
2022/07/03 09:12:48;;;;;;;4.28;1.20;;;;;;;27.20;40.42;101730.38;4989688;28;109826;-67
2022/07/03 09:15:16;;;;;;;1.60;1.00;;;;;;;27.25;40.55;101730.75;4992324;28;108690;-65
2022/07/03 09:18:04;;;;;;;2.42;1.00;;;;;;;27.32;39.82;101726.41;4988341;28;123908;-65
2022/07/03 09:20:40;;;;;;;1.80;0.93;;;;;;;27.34;39.51;101729.81;4981358;28;123464;-65
2022/07/03 09:23:20;;;;;;;1.40;0.98;;;;;;;27.37;39.71;101734.94;4993611;28;108483;-65
2022/07/03 09:25:55;;;;;;;2.45;1.40;;;;;;;27.41;39.09;101729.19;4973832;28;108886;-65
2022/07/03 09:28:52;;;;;;;3.33;1.20;;;;;;;27.40;39.65;101727.50;4982830;28;123845;-65
2022/07/03 09:31:22;;;;;;;1.38;0.98;;;;;;;27.44;39.32;101734.31;4992800;28;123923;-64
2022/07/03 09:34:00;;;;;;;3.50;1.10;;;;;;;27.45;39.08;101736.03;4988418;28;108899;-65
2022/07/03 09:36:44;;;;;;;3.05;1.30;;;;;;;27.49;39.14;101737.44;4983478;28;109255;-65
2022/07/03 09:39:31;;;;;;;3.83;1.20;;;;;;;27.52;39.72;101740.69;4988903;28;124070;-65
2022/07/03 09:42:04;;;;;;;2.05;1.17;;;;;;;27.60;38.98;101744.47;4977275;28;124012;-65
2022/07/03 09:44:37;;;;;;;2.78;1.40;;;;;;;27.61;39.38;101741.56;4992951;28;110421;-64
2022/07/03 09:47:22;;;;;;;2.47;1.65;;;;;;;27.63;38.95;101739.56;4991985;28;109776;-65
2022/07/03 09:49:52;;;;;;;;;;;;;;;27.66;39.63;101738.41;4981185;28;123905;-65
2022/07/03 09:52:28;;;;;;;2.65;1.80;;;;;;;27.68;39.07;101737.22;4977690;28;123130;-64
2022/07/03 09:55:01;;;;;;;2.97;1.40;;;;;;;27.70;39.58;101737.91;4991553;28;109138;-65
2022/07/03 09:57:29;;;;;;;2.55;1.42;;;;;;;27.73;39.56;101745.75;4975096;28;108875;-65
2022/07/03 10:00:20;;;;;;;2.25;1.25;;;;;;;27.79;39.44;101735.25;4992288;28;125029;-67
2022/07/03 10:02:55;;;;;;;2.53;1.30;;;;;;;27.86;39.43;101755.34;4992376;28;122897;-68
2022/07/03 10:05:24;;;;;;;3.92;1.65;;;;;;;27.87;39.48;101740.72;4988810;28;108163;-67
2022/07/03 10:07:53;;;;;;;2.58;1.80;;;;;;;27.91;39.61;101744.88;4976127;28;108141;-67
2022/07/03 10:10:22;;;;;;;3.40;1.60;;;;;;;28.00;39.86;101745.78;4977773;28;124207;-68
2022/07/03 10:12:51;;;;;;;1.55;1.10;;;;;;;28.07;39.40;101747.69;4987357;28;124243;-68
2022/07/03 10:15:19;;;;;;;1.80;1.05;;;;;;;28.12;39.12;101756.25;4976436;28;108107;-67
2022/07/03 10:17:48;;;;;;;1.63;1.02;;;;;;;28.18;38.17;101742.97;4987469;28;109323;-68
2022/07/03 10:20:23;;;;;;;3.20;1.20;;;;;;;28.21;38.09;101753.53;4990910;28;123026;-68
2022/07/03 10:22:50;;;;;;;2.08;1.20;;;;;;;28.24;38.46;101745.06;4991529;28;123860;-68
2022/07/03 10:25:18;;;;;;;2.13;1.15;;;;;;;28.29;38.41;101750.84;4986346;28;109331;-67
2022/07/03 10:27:49;;;;;;;2.28;1.50;;;;;;;28.33;38.48;101752.22;4984565;28;109438;-67
2022/07/03 10:30:19;;;;;;;2.45;1.40;;;;;;;28.35;38.37;101745.63;4988068;28;123894;-68
2022/07/03 10:32:50;;;;;;;2.67;1.27;;;;;;;28.37;38.55;101764.53;4982860;28;123749;-66
2022/07/03 10:35:37;;;;;;;1.63;1.20;;;;;;;28.42;38.65;101756.69;4988309;28;110685;-66
2022/07/03 10:38:20;;;;;;;4.22;1.10;;;;;;;28.50;38.65;101756.75;4989152;28;109987;-70
2022/07/03 10:46:39;;;;;;;2.20;1.38;;;;;;;28.43;38.46;101763.88;4976805;28;109316;-67
2022/07/03 10:49:07;;;;;;;2.05;1.50;;;;;;;28.41;38.11;101765.06;4988391;28;109185;-68
2022/07/03 10:52:03;;;;;;;1.40;1.08;;;;;;;28.38;38.76;101760.78;4990625;28;124018;-67
2022/07/03 10:54:33;;;;;;;2.65;1.70;;;;;;;28.40;38.62;101757.88;4988625;28;123948;-68
2022/07/03 10:57:08;;;;;;;2.80;1.60;;;;;;;28.40;38.58;101752.44;4991332;28;109218;-68
2022/07/03 10:59:42;;;;;;;3.97;1.85;;;;;;;28.41;38.58;101765.91;4987862;28;108285;-68
2022/07/03 11:02:23;;;;;;;5.22;1.48;;;;;;;28.44;38.78;101759.25;4991135;28;123368;-67
2022/07/03 11:04:59;;;;;;;2.45;1.60;;;;;;;28.51;38.51;101761.16;4993626;28;123332;-68
2022/07/03 11:07:30;;;;;;;3.15;1.38;;;;;;;28.55;38.01;101767.16;4985964;28;109001;-68
2022/07/03 11:10:15;;;;;;;3.08;1.40;;;;;;;28.54;37.67;101760.88;4984497;28;108807;-68
2022/07/03 11:13:01;;;;;;;1.80;1.13;;;;;;;28.52;37.78;101762.91;4990697;28;124310;-65
2022/07/03 11:15:37;;;;;;;2.92;1.10;;;;;;;28.57;37.64;101753.38;4989773;28;124202;-65
2022/07/03 11:18:13;;;;;;;2.55;1.20;;;;;;;28.64;37.55;101748.97;4988854;28;109157;-65
2022/07/03 11:20:44;;;;;;;2.35;1.20;;;;;;;28.69;37.53;101752.06;4993828;28;108995;-65
2022/07/03 11:23:18;;;;;;;3.03;1.40;;;;;;;28.73;37.27;101750.72;4981878;28;123921;-65
2022/07/03 11:25:47;;;;;;;3.10;1.50;;;;;;;28.76;36.85;101749.50;4992369;28;123927;-65
2022/07/03 11:28:32;;;;;;;2.90;1.35;;;;;;;28.70;36.99;101753.75;4978382;28;109994;-65
2022/07/03 11:33:58;;;;;;;1.52;1.08;;;;;;;28.43;36.71;101752.97;4987335;28;124176;-65
2022/07/03 11:36:31;;;;;;;2.78;1.30;;;;;;;28.31;37.06;101754.25;4989022;28;123638;-65
2022/07/03 11:38:58;;;;;;;2.38;1.17;;;;;;;28.24;36.17;101754.06;4990671;28;108372;-65
2022/07/03 11:41:29;;;;;;;3.38;0.90;;;;;;;28.17;36.35;101752.16;4976605;28;109277;-67
2022/07/03 11:44:01;;;;;;;1.48;1.00;;;;;;;28.07;36.62;101747.69;4976497;28;124796;-67
2022/07/03 11:46:30;;;;;;;2.10;1.15;;;;;;;28.01;36.71;101742.91;4994150;28;123567;-67
2022/07/03 11:49:09;;;;;;;3.58;1.30;;;;;;;27.95;37.19;101748.97;4989573;28;109356;-67